sensor_id;sensor_type;location;lat;lon;timestamp;pressure;altitude;pressure_sealevel;temperature;humidity
76726;BME280;65651;53.154;17.916;2023-05-10T00:02:26;101405.44;;;8.61;47.07
76726;BME280;65651;53.154;17.916;2023-05-10T00:04:53;101404.30;;;8.62;46.46
76726;BME280;65651;53.154;17.916;2023-05-10T00:07:21;101400.45;;;8.58;47.04
76726;BME280;65651;53.154;17.916;2023-05-10T00:09:48;101403.55;;;8.55;47.19
76726;BME280;65651;53.154;17.916;2023-05-10T00:12:15;101404.03;;;8.51;47.09
76726;BME280;65651;53.154;17.916;2023-05-10T00:14:43;101405.94;;;8.47;47.09
76726;BME280;65651;53.154;17.916;2023-05-10T00:17:10;101403.21;;;8.45;47.21
76726;BME280;65651;53.154;17.916;2023-05-10T00:19:37;101403.10;;;8.42;47.18
76726;BME280;65651;53.154;17.916;2023-05-10T00:22:05;101395.84;;;8.36;47.32
76726;BME280;65651;53.154;17.916;2023-05-10T00:24:35;101393.83;;;8.33;47.04
76726;BME280;65651;53.154;17.916;2023-05-10T00:27:03;101391.29;;;8.32;47.33
76726;BME280;65651;53.154;17.916;2023-05-10T00:29:31;101391.75;;;8.25;47.47
76726;BME280;65651;53.154;17.916;2023-05-10T00:31:59;101384.48;;;8.15;47.78
76726;BME280;65651;53.154;17.916;2023-05-10T00:34:26;101385.48;;;8.04;48.07
76726;BME280;65651;53.154;17.916;2023-05-10T00:36:57;101387.38;;;7.90;48.43
76726;BME280;65651;53.154;17.916;2023-05-10T00:39:25;101387.16;;;7.75;48.91
76726;BME280;65651;53.154;17.916;2023-05-10T00:41:54;101384.60;;;7.58;49.23
76726;BME280;65651;53.154;17.916;2023-05-10T00:44:22;101389.77;;;7.43;49.22
76726;BME280;65651;53.154;17.916;2023-05-10T00:46:51;101383.23;;;7.32;49.29
76726;BME280;65651;53.154;17.916;2023-05-10T00:49:19;101379.50;;;7.21;49.24
76726;BME280;65651;53.154;17.916;2023-05-10T00:51:46;101383.35;;;7.12;49.58
76726;BME280;65651;53.154;17.916;2023-05-10T00:54:15;101379.00;;;7.00;49.84
76726;BME280;65651;53.154;17.916;2023-05-10T00:56:43;101382.43;;;6.91;50.33
76726;BME280;65651;53.154;17.916;2023-05-10T00:59:16;101377.93;;;6.84;50.46
76726;BME280;65651;53.154;17.916;2023-05-10T01:01:45;101375.30;;;6.78;50.51
76726;BME280;65651;53.154;17.916;2023-05-10T01:04:14;101375.45;;;6.71;50.67
76726;BME280;65651;53.154;17.916;2023-05-10T01:06:43;101374.41;;;6.65;50.84
76726;BME280;65651;53.154;17.916;2023-05-10T01:09:10;101375.44;;;6.60;51.01
76726;BME280;65651;53.154;17.916;2023-05-10T01:11:39;101375.59;;;6.55;50.98
76726;BME280;65651;53.154;17.916;2023-05-10T01:14:07;101377.89;;;6.50;51.14
76726;BME280;65651;53.154;17.916;2023-05-10T01:16:38;101376.77;;;6.46;51.40
76726;BME280;65651;53.154;17.916;2023-05-10T01:19:12;101371.48;;;6.39;51.63
76726;BME280;65651;53.154;17.916;2023-05-10T01:22:10;101374.04;;;6.36;51.86
76726;BME280;65651;53.154;17.916;2023-05-10T01:36:03;101361.08;;;6.10;52.77
76726;BME280;65651;53.154;17.916;2023-05-10T01:46:38;101351.54;;;5.92;53.35
76726;BME280;65651;53.154;17.916;2023-05-10T01:49:13;101345.30;;;5.88;53.45
76726;BME280;65651;53.154;17.916;2023-05-10T01:51:49;101343.77;;;5.85;53.51
76726;BME280;65651;53.154;17.916;2023-05-10T01:54:21;101344.00;;;5.81;53.70
76726;BME280;65651;53.154;17.916;2023-05-10T01:56:55;101347.23;;;5.78;53.97
76726;BME280;65651;53.154;17.916;2023-05-10T01:59:33;101344.77;;;5.75;54.13
76726;BME280;65651;53.154;17.916;2023-05-10T02:02:07;101344.04;;;5.72;54.17
76726;BME280;65651;53.154;17.916;2023-05-10T02:04:39;101339.04;;;5.69;54.30
76726;BME280;65651;53.154;17.916;2023-05-10T02:07:08;101336.14;;;5.68;54.38
76726;BME280;65651;53.154;17.916;2023-05-10T02:09:37;101334.59;;;5.64;54.70
76726;BME280;65651;53.154;17.916;2023-05-10T02:12:06;101332.25;;;5.61;54.60
76726;BME280;65651;53.154;17.916;2023-05-10T02:14:37;101329.39;;;5.59;54.80
76726;BME280;65651;53.154;17.916;2023-05-10T02:17:06;101331.48;;;5.57;54.85
76726;BME280;65651;53.154;17.916;2023-05-10T02:19:39;101328.11;;;5.54;54.89
76726;BME280;65651;53.154;17.916;2023-05-10T02:22:08;101328.55;;;5.52;55.25
76726;BME280;65651;53.154;17.916;2023-05-10T02:24:39;101325.07;;;5.51;55.36
76726;BME280;65651;53.154;17.916;2023-05-10T02:27:08;101323.17;;;5.50;55.46
76726;BME280;65651;53.154;17.916;2023-05-10T02:29:37;101321.60;;;5.47;55.44
76726;BME280;65651;53.154;17.916;2023-05-10T02:32:05;101324.74;;;5.45;55.52
76726;BME280;65651;53.154;17.916;2023-05-10T02:34:33;101325.66;;;5.44;55.84
76726;BME280;65651;53.154;17.916;2023-05-10T02:37:02;101324.46;;;5.44;55.90
76726;BME280;65651;53.154;17.916;2023-05-10T02:39:32;101323.35;;;5.42;56.08
76726;BME280;65651;53.154;17.916;2023-05-10T02:42:00;101322.89;;;5.37;56.14
76726;BME280;65651;53.154;17.916;2023-05-10T02:44:30;101322.00;;;5.34;56.54
76726;BME280;65651;53.154;17.916;2023-05-10T02:46:58;101321.73;;;5.30;56.56
76726;BME280;65651;53.154;17.916;2023-05-10T02:49:29;101319.52;;;5.29;56.38
76726;BME280;65651;53.154;17.916;2023-05-10T02:52:00;101321.54;;;5.27;56.60
76726;BME280;65651;53.154;17.916;2023-05-10T02:54:32;101321.98;;;5.26;57.02
76726;BME280;65651;53.154;17.916;2023-05-10T02:57:03;101320.48;;;5.27;56.95
76726;BME280;65651;53.154;17.916;2023-05-10T02:59:31;101317.34;;;5.26;57.02
76726;BME280;65651;53.154;17.916;2023-05-10T03:02:00;101322.78;;;5.28;57.03
76726;BME280;65651;53.154;17.916;2023-05-10T03:04:30;101321.91;;;5.30;57.04
76726;BME280;65651;53.154;17.916;2023-05-10T03:06:58;101321.39;;;5.33;57.09
76726;BME280;65651;53.154;17.916;2023-05-10T03:09:25;101324.96;;;5.33;57.18
76726;BME280;65651;53.154;17.916;2023-05-10T03:12:21;101328.61;;;5.34;57.18
76726;BME280;65651;53.154;17.916;2023-05-10T03:15:00;101323.77;;;5.37;57.24
76726;BME280;65651;53.154;17.916;2023-05-10T03:17:56;101322.89;;;5.40;57.26
76726;BME280;65651;53.154;17.916;2023-05-10T03:20:38;101318.34;;;5.45;57.25
76726;BME280;65651;53.154;17.916;2023-05-10T03:23:27;101319.20;;;5.51;57.45
76726;BME280;65651;53.154;17.916;2023-05-10T03:25:55;101316.38;;;5.56;57.31
76726;BME280;65651;53.154;17.916;2023-05-10T03:28:25;101314.77;;;5.59;57.29
76726;BME280;65651;53.154;17.916;2023-05-10T03:30:54;101315.13;;;5.64;57.40
76726;BME280;65651;53.154;17.916;2023-05-10T03:33:22;101316.16;;;5.71;57.48
76726;BME280;65651;53.154;17.916;2023-05-10T03:35:50;101310.71;;;5.75;57.50
76726;BME280;65651;53.154;17.916;2023-05-10T03:38:17;101314.35;;;5.83;57.49
76726;BME280;65651;53.154;17.916;2023-05-10T03:40:44;101315.14;;;5.90;57.37
76726;BME280;65651;53.154;17.916;2023-05-10T03:43:12;101314.56;;;5.97;57.39
76726;BME280;65651;53.154;17.916;2023-05-10T03:45:39;101314.35;;;6.02;57.31
76726;BME280;65651;53.154;17.916;2023-05-10T03:48:06;101313.55;;;6.09;57.29
76726;BME280;65651;53.154;17.916;2023-05-10T03:50:37;101314.04;;;6.18;57.18
76726;BME280;65651;53.154;17.916;2023-05-10T03:53:05;101313.21;;;6.28;56.95
76726;BME280;65651;53.154;17.916;2023-05-10T03:55:33;101315.09;;;6.40;56.81
76726;BME280;65651;53.154;17.916;2023-05-10T03:58:03;101314.98;;;6.52;56.75
76726;BME280;65651;53.154;17.916;2023-05-10T04:00:31;101313.59;;;6.65;56.97
76726;BME280;65651;53.154;17.916;2023-05-10T04:03:00;101310.56;;;6.80;56.68
76726;BME280;65651;53.154;17.916;2023-05-10T04:05:27;101311.23;;;7.04;56.29
76726;BME280;65651;53.154;17.916;2023-05-10T04:07:58;101303.70;;;8.02;55.39
76726;BME280;65651;53.154;17.916;2023-05-10T04:10:25;101298.21;;;9.89;53.91
76726;BME280;65651;53.154;17.916;2023-05-10T04:12:52;101298.06;;;11.72;52.41
76726;BME280;65651;53.154;17.916;2023-05-10T04:15:20;101297.48;;;13.43;50.92
76726;BME280;65651;53.154;17.916;2023-05-10T04:17:47;101298.98;;;15.00;48.67
76726;BME280;65651;53.154;17.916;2023-05-10T04:20:15;101290.15;;;16.35;47.01
76726;BME280;65651;53.154;17.916;2023-05-10T04:22:42;101290.16;;;17.49;45.16
76726;BME280;65651;53.154;17.916;2023-05-10T04:25:09;101282.83;;;18.50;43.80
76726;BME280;65651;53.154;17.916;2023-05-10T04:27:37;101287.60;;;19.59;42.70
76726;BME280;65651;53.154;17.916;2023-05-10T04:30:04;101282.55;;;20.55;40.63
76726;BME280;65651;53.154;17.916;2023-05-10T04:32:32;101282.80;;;21.27;39.33
76726;BME280;65651;53.154;17.916;2023-05-10T04:34:59;101281.55;;;22.20;37.54
76726;BME280;65651;53.154;17.916;2023-05-10T04:37:26;101280.49;;;22.96;35.09
76726;BME280;65651;53.154;17.916;2023-05-10T04:39:55;101277.89;;;23.76;34.17
76726;BME280;65651;53.154;17.916;2023-05-10T04:42:24;101273.37;;;24.72;32.65
76726;BME280;65651;53.154;17.916;2023-05-10T04:44:52;101270.42;;;25.73;30.97
76726;BME280;65651;53.154;17.916;2023-05-10T04:47:20;101268.40;;;26.46;29.20
76726;BME280;65651;53.154;17.916;2023-05-10T04:49:47;101268.50;;;26.83;27.42
76726;BME280;65651;53.154;17.916;2023-05-10T04:52:14;101269.04;;;26.89;26.04
76726;BME280;65651;53.154;17.916;2023-05-10T04:54:44;101274.52;;;27.14;24.91
76726;BME280;65651;53.154;17.916;2023-05-10T04:57:11;101268.44;;;27.70;24.26
76726;BME280;65651;53.154;17.916;2023-05-10T04:59:38;101265.81;;;28.41;22.94
76726;BME280;65651;53.154;17.916;2023-05-10T05:02:06;101266.45;;;28.63;22.03
76726;BME280;65651;53.154;17.916;2023-05-10T05:04:33;101268.90;;;29.09;21.31
76726;BME280;65651;53.154;17.916;2023-05-10T05:07:00;101263.88;;;29.61;20.48
76726;BME280;65651;53.154;17.916;2023-05-10T05:09:28;101258.63;;;30.28;19.73
76726;BME280;65651;53.154;17.916;2023-05-10T05:11:55;101257.35;;;30.76;18.95
76726;BME280;65651;53.154;17.916;2023-05-10T05:14:22;101255.66;;;30.92;18.32
76726;BME280;65651;53.154;17.916;2023-05-10T05:16:52;101259.02;;;31.32;17.70
76726;BME280;65651;53.154;17.916;2023-05-10T05:19:19;101260.04;;;31.91;17.14
76726;BME280;65651;53.154;17.916;2023-05-10T05:21:47;101260.43;;;32.27;16.77
76726;BME280;65651;53.154;17.916;2023-05-10T05:24:14;101260.92;;;32.37;16.31
76726;BME280;65651;53.154;17.916;2023-05-10T05:26:41;101256.34;;;32.69;16.04
76726;BME280;65651;53.154;17.916;2023-05-10T05:29:08;101250.60;;;33.11;15.48
76726;BME280;65651;53.154;17.916;2023-05-10T05:31:36;101253.74;;;33.09;15.20
76726;BME280;65651;53.154;17.916;2023-05-10T05:34:03;101253.77;;;33.31;14.72
76726;BME280;65651;53.154;17.916;2023-05-10T05:36:31;101255.41;;;33.43;14.46
76726;BME280;65651;53.154;17.916;2023-05-10T05:39:04;101256.98;;;33.97;14.23
76726;BME280;65651;53.154;17.916;2023-05-10T05:41:31;101254.87;;;34.63;13.96
76726;BME280;65651;53.154;17.916;2023-05-10T05:43:58;101248.05;;;34.90;13.44
76726;BME280;65651;53.154;17.916;2023-05-10T05:46:25;101246.16;;;35.31;13.50
76726;BME280;65651;53.154;17.916;2023-05-10T05:48:55;101246.73;;;35.53;13.03
76726;BME280;65651;53.154;17.916;2023-05-10T05:51:23;101245.43;;;35.81;12.94
76726;BME280;65651;53.154;17.916;2023-05-10T05:53:50;101247.52;;;36.16;12.47
76726;BME280;65651;53.154;17.916;2023-05-10T05:56:23;101246.23;;;36.43;12.47
76726;BME280;65651;53.154;17.916;2023-05-10T05:58:51;101237.20;;;36.57;12.51
76726;BME280;65651;53.154;17.916;2023-05-10T06:01:19;101239.92;;;36.72;11.89
76726;BME280;65651;53.154;17.916;2023-05-10T06:03:46;101236.77;;;36.56;11.62
76726;BME280;65651;53.154;17.916;2023-05-10T06:06:13;101229.10;;;36.76;11.09
76726;BME280;65651;53.154;17.916;2023-05-10T06:08:41;101232.33;;;36.82;10.97
76726;BME280;65651;53.154;17.916;2023-05-10T06:11:08;101234.86;;;36.87;10.86
76726;BME280;65651;53.154;17.916;2023-05-10T06:13:35;101235.83;;;37.64;10.87
76726;BME280;65651;53.154;17.916;2023-05-10T06:16:03;101237.70;;;37.84;10.40
76726;BME280;65651;53.154;17.916;2023-05-10T06:18:33;101238.56;;;37.60;10.50
76726;BME280;65651;53.154;17.916;2023-05-10T06:21:01;101248.16;;;37.83;10.25
76726;BME280;65651;53.154;17.916;2023-05-10T06:23:29;101244.41;;;38.19;9.97
76726;BME280;65651;53.154;17.916;2023-05-10T06:26:02;101243.50;;;38.41;10.09
76726;BME280;65651;53.154;17.916;2023-05-10T06:28:30;101241.27;;;38.65;9.86
76726;BME280;65651;53.154;17.916;2023-05-10T06:31:03;101242.85;;;38.59;9.80
76726;BME280;65651;53.154;17.916;2023-05-10T06:33:41;101243.55;;;38.15;9.52
76726;BME280;65651;53.154;17.916;2023-05-10T06:36:09;101242.73;;;38.00;9.59
76726;BME280;65651;53.154;17.916;2023-05-10T06:38:39;101241.25;;;38.27;9.60
76726;BME280;65651;53.154;17.916;2023-05-10T06:41:14;101237.24;;;38.53;9.45
76726;BME280;65651;53.154;17.916;2023-05-10T06:43:41;101233.79;;;38.86;9.38
76726;BME280;65651;53.154;17.916;2023-05-10T06:46:10;101236.51;;;39.34;9.30
76726;BME280;65651;53.154;17.916;2023-05-10T06:48:37;101233.80;;;39.53;9.08
76726;BME280;65651;53.154;17.916;2023-05-10T06:51:05;101234.20;;;39.87;9.25
76726;BME280;65651;53.154;17.916;2023-05-10T06:53:32;101237.93;;;40.02;8.74
76726;BME280;65651;53.154;17.916;2023-05-10T06:55:59;101236.14;;;39.79;8.53
76726;BME280;65651;53.154;17.916;2023-05-10T06:58:27;101227.64;;;39.08;8.83
76726;BME280;65651;53.154;17.916;2023-05-10T07:01:02;101233.47;;;38.81;9.02
76726;BME280;65651;53.154;17.916;2023-05-10T07:03:29;101233.30;;;38.90;8.77
76726;BME280;65651;53.154;17.916;2023-05-10T07:06:01;101230.04;;;38.43;8.90
76726;BME280;65651;53.154;17.916;2023-05-10T07:08:33;101229.04;;;38.67;9.07
76726;BME280;65651;53.154;17.916;2023-05-10T07:11:05;101229.77;;;39.23;8.88
76726;BME280;65651;53.154;17.916;2023-05-10T07:13:42;101230.60;;;39.72;8.81
76726;BME280;65651;53.154;17.916;2023-05-10T07:16:11;101233.58;;;39.67;8.46
76726;BME280;65651;53.154;17.916;2023-05-10T07:18:38;101230.09;;;39.62;8.49
76726;BME280;65651;53.154;17.916;2023-05-10T07:21:05;101222.84;;;39.26;8.51
76726;BME280;65651;53.154;17.916;2023-05-10T07:23:33;101223.16;;;38.85;8.52
76726;BME280;65651;53.154;17.916;2023-05-10T07:26:00;101223.89;;;38.69;8.52
76726;BME280;65651;53.154;17.916;2023-05-10T07:28:29;101223.03;;;38.29;8.52
76726;BME280;65651;53.154;17.916;2023-05-10T07:30:56;101223.45;;;38.14;8.77
76726;BME280;65651;53.154;17.916;2023-05-10T07:33:24;101221.86;;;38.13;8.75
76726;BME280;65651;53.154;17.916;2023-05-10T07:35:51;101221.56;;;38.04;8.85
76726;BME280;65651;53.154;17.916;2023-05-10T07:38:21;101223.02;;;38.29;8.82
76726;BME280;65651;53.154;17.916;2023-05-10T07:40:49;101230.38;;;38.47;8.72
76726;BME280;65651;53.154;17.916;2023-05-10T07:43:16;101225.15;;;38.07;8.77
76726;BME280;65651;53.154;17.916;2023-05-10T07:45:43;101221.30;;;37.69;9.05
76726;BME280;65651;53.154;17.916;2023-05-10T07:48:11;101223.34;;;37.57;9.16
76726;BME280;65651;53.154;17.916;2023-05-10T07:50:38;101221.12;;;37.56;9.03
76726;BME280;65651;53.154;17.916;2023-05-10T07:53:05;101222.92;;;37.47;9.25
76726;BME280;65651;53.154;17.916;2023-05-10T07:55:33;101222.54;;;37.79;9.29
76726;BME280;65651;53.154;17.916;2023-05-10T07:58:00;101221.92;;;38.25;9.17
76726;BME280;65651;53.154;17.916;2023-05-10T08:00:28;101218.70;;;38.45;8.94
76726;BME280;65651;53.154;17.916;2023-05-10T08:02:55;101220.50;;;38.61;9.10
76726;BME280;65651;53.154;17.916;2023-05-10T08:05:22;101219.06;;;39.00;8.98
76726;BME280;65651;53.154;17.916;2023-05-10T08:07:50;101218.42;;;39.36;8.74
76726;BME280;65651;53.154;17.916;2023-05-10T08:10:17;101224.55;;;39.78;8.61
76726;BME280;65651;53.154;17.916;2023-05-10T08:12:44;101217.23;;;39.70;8.41
76726;BME280;65651;53.154;17.916;2023-05-10T08:15:11;101219.50;;;39.64;8.36
76726;BME280;65651;53.154;17.916;2023-05-10T08:17:39;101213.21;;;39.87;8.24
76726;BME280;65651;53.154;17.916;2023-05-10T08:20:06;101217.13;;;40.00;8.21
76726;BME280;65651;53.154;17.916;2023-05-10T08:22:37;101213.67;;;40.00;8.13
76726;BME280;65651;53.154;17.916;2023-05-10T08:25:05;101213.98;;;39.57;8.04
76726;BME280;65651;53.154;17.916;2023-05-10T08:27:32;101215.00;;;39.11;8.16
76726;BME280;65651;53.154;17.916;2023-05-10T08:30:01;101215.13;;;38.66;8.36
76726;BME280;65651;53.154;17.916;2023-05-10T08:32:29;101211.96;;;38.85;8.34
76726;BME280;65651;53.154;17.916;2023-05-10T08:34:56;101218.27;;;38.58;8.45
76726;BME280;65651;53.154;17.916;2023-05-10T08:37:23;101211.59;;;38.41;8.67
76726;BME280;65651;53.154;17.916;2023-05-10T08:39:51;101212.63;;;38.38;8.42
76726;BME280;65651;53.154;17.916;2023-05-10T08:42:20;101213.80;;;38.06;8.57
76726;BME280;65651;53.154;17.916;2023-05-10T08:44:49;101210.44;;;37.60;8.83
76726;BME280;65651;53.154;17.916;2023-05-10T08:47:18;101211.02;;;37.41;9.02
76726;BME280;65651;53.154;17.916;2023-05-10T08:49:47;101212.20;;;37.43;8.87
76726;BME280;65651;53.154;17.916;2023-05-10T08:52:18;101209.85;;;37.62;9.08
76726;BME280;65651;53.154;17.916;2023-05-10T08:54:47;101210.91;;;37.57;9.14
76726;BME280;65651;53.154;17.916;2023-05-10T08:57:17;101208.15;;;37.50;8.89
76726;BME280;65651;53.154;17.916;2023-05-10T08:59:45;101208.15;;;37.28;8.96
76726;BME280;65651;53.154;17.916;2023-05-10T09:02:14;101206.76;;;37.37;9.11
76726;BME280;65651;53.154;17.916;2023-05-10T09:04:41;101210.10;;;37.39;9.13
76726;BME280;65651;53.154;17.916;2023-05-10T09:07:08;101212.19;;;37.30;9.25
76726;BME280;65651;53.154;17.916;2023-05-10T09:09:36;101207.44;;;37.60;9.12
76726;BME280;65651;53.154;17.916;2023-05-10T09:12:04;101203.44;;;37.79;9.22
76726;BME280;65651;53.154;17.916;2023-05-10T09:14:34;101207.77;;;37.54;9.19
76726;BME280;65651;53.154;17.916;2023-05-10T09:17:02;101209.02;;;37.24;9.05
76726;BME280;65651;53.154;17.916;2023-05-10T09:19:29;101203.73;;;37.13;9.34
76726;BME280;65651;53.154;17.916;2023-05-10T09:21:56;101200.10;;;37.06;9.19
76726;BME280;65651;53.154;17.916;2023-05-10T09:24:29;101193.86;;;37.19;9.39
76726;BME280;65651;53.154;17.916;2023-05-10T09:26:57;101193.27;;;37.17;9.23
76726;BME280;65651;53.154;17.916;2023-05-10T09:29:42;101190.46;;;37.11;9.26
76726;BME280;65651;53.154;17.916;2023-05-10T09:32:10;101193.40;;;36.85;9.34
76726;BME280;65651;53.154;17.916;2023-05-10T09:34:37;101194.29;;;36.75;9.54
76726;BME280;65651;53.154;17.916;2023-05-10T09:37:09;101198.19;;;36.81;9.50
76726;BME280;65651;53.154;17.916;2023-05-10T09:39:37;101197.13;;;36.58;9.67
76726;BME280;65651;53.154;17.916;2023-05-10T09:42:07;101205.27;;;36.51;9.71
76726;BME280;65651;53.154;17.916;2023-05-10T09:44:36;101203.16;;;35.95;9.63
76726;BME280;65651;53.154;17.916;2023-05-10T09:47:05;101192.17;;;35.42;10.03
76726;BME280;65651;53.154;17.916;2023-05-10T09:49:32;101193.10;;;35.12;10.14
76726;BME280;65651;53.154;17.916;2023-05-10T09:52:02;101191.39;;;34.87;10.33
76726;BME280;65651;53.154;17.916;2023-05-10T09:54:30;101193.11;;;34.93;10.39
76726;BME280;65651;53.154;17.916;2023-05-10T09:56:58;101191.13;;;35.00;10.54
76726;BME280;65651;53.154;17.916;2023-05-10T09:59:27;101194.77;;;34.54;10.68
76726;BME280;65651;53.154;17.916;2023-05-10T10:01:59;101189.92;;;32.65;11.29
76726;BME280;65651;53.154;17.916;2023-05-10T10:04:27;101189.77;;;30.16;12.24
76726;BME280;65651;53.154;17.916;2023-05-10T10:07:02;101193.41;;;28.40;13.31
76726;BME280;65651;53.154;17.916;2023-05-10T10:09:31;101187.55;;;27.09;14.29
76726;BME280;65651;53.154;17.916;2023-05-10T10:12:02;101185.43;;;25.90;15.34
76726;BME280;65651;53.154;17.916;2023-05-10T10:14:30;101186.59;;;25.05;16.17
76726;BME280;65651;53.154;17.916;2023-05-10T10:17:00;101173.30;;;24.29;17.09
76726;BME280;65651;53.154;17.916;2023-05-10T10:19:28;101180.67;;;23.56;17.95
76726;BME280;65651;53.154;17.916;2023-05-10T10:21:55;101187.23;;;23.05;18.66
76726;BME280;65651;53.154;17.916;2023-05-10T10:24:22;101178.62;;;22.69;18.81
76726;BME280;65651;53.154;17.916;2023-05-10T10:26:52;101182.58;;;22.39;19.63
76726;BME280;65651;53.154;17.916;2023-05-10T10:34:35;101177.03;;;21.40;21.02
76726;BME280;65651;53.154;17.916;2023-05-10T10:37:05;101170.36;;;21.18;21.50
76726;BME280;65651;53.154;17.916;2023-05-10T10:39:33;101172.55;;;21.05;21.57
76726;BME280;65651;53.154;17.916;2023-05-10T10:42:05;101172.19;;;20.95;21.72
76726;BME280;65651;53.154;17.916;2023-05-10T10:49:52;101160.48;;;20.65;22.43
76726;BME280;65651;53.154;17.916;2023-05-10T10:52:28;101155.09;;;20.65;22.60
76726;BME280;65651;53.154;17.916;2023-05-10T10:55:14;101157.70;;;20.72;22.86
76726;BME280;65651;53.154;17.916;2023-05-10T10:57:48;101153.77;;;20.68;22.84
76726;BME280;65651;53.154;17.916;2023-05-10T11:00:33;101153.49;;;20.66;23.07
76726;BME280;65651;53.154;17.916;2023-05-10T11:05:45;101154.42;;;20.43;23.31
76726;BME280;65651;53.154;17.916;2023-05-10T11:08:30;101162.48;;;20.36;23.62
76726;BME280;65651;53.154;17.916;2023-05-10T11:13:46;101160.80;;;20.23;23.99
76726;BME280;65651;53.154;17.916;2023-05-10T11:16:22;101164.14;;;20.17;24.02
76726;BME280;65651;53.154;17.916;2023-05-10T11:19:01;101157.66;;;20.08;24.26
76726;BME280;65651;53.154;17.916;2023-05-10T11:21:33;101163.30;;;20.05;24.46
76726;BME280;65651;53.154;17.916;2023-05-10T11:24:01;101152.63;;;19.97;24.57
76726;BME280;65651;53.154;17.916;2023-05-10T11:26:36;101148.35;;;19.85;24.89
76726;BME280;65651;53.154;17.916;2023-05-10T11:29:04;101152.70;;;19.81;24.89
76726;BME280;65651;53.154;17.916;2023-05-10T11:31:32;101159.26;;;19.81;24.97
76726;BME280;65651;53.154;17.916;2023-05-10T11:34:00;101157.16;;;19.81;24.99
76726;BME280;65651;53.154;17.916;2023-05-10T11:36:33;101148.48;;;19.82;25.00
76726;BME280;65651;53.154;17.916;2023-05-10T11:39:01;101144.57;;;19.79;25.22
76726;BME280;65651;53.154;17.916;2023-05-10T11:41:30;101146.22;;;19.80;25.42
76726;BME280;65651;53.154;17.916;2023-05-10T11:43:58;101152.30;;;19.75;25.45
76726;BME280;65651;53.154;17.916;2023-05-10T11:46:27;101146.27;;;19.73;25.54
76726;BME280;65651;53.154;17.916;2023-05-10T11:48:59;101148.46;;;19.73;25.60
76726;BME280;65651;53.154;17.916;2023-05-10T11:51:34;101149.29;;;19.72;25.58
76726;BME280;65651;53.154;17.916;2023-05-10T11:54:08;101150.05;;;19.74;25.46
76726;BME280;65651;53.154;17.916;2023-05-10T11:56:39;101150.23;;;19.77;25.42
76726;BME280;65651;53.154;17.916;2023-05-10T11:59:07;101148.13;;;19.75;25.37
76726;BME280;65651;53.154;17.916;2023-05-10T12:01:35;101149.85;;;19.75;25.26
76726;BME280;65651;53.154;17.916;2023-05-10T12:04:03;101146.92;;;19.72;25.25
76726;BME280;65651;53.154;17.916;2023-05-10T12:06:32;101139.96;;;19.66;25.32
76726;BME280;65651;53.154;17.916;2023-05-10T12:09:06;101138.78;;;19.56;25.33
76726;BME280;65651;53.154;17.916;2023-05-10T12:11:38;101129.20;;;19.53;25.39
76726;BME280;65651;53.154;17.916;2023-05-10T12:14:07;101124.52;;;19.48;25.52
76726;BME280;65651;53.154;17.916;2023-05-10T12:16:35;101133.70;;;19.51;25.58
76726;BME280;65651;53.154;17.916;2023-05-10T12:19:02;101137.85;;;19.62;25.71
76726;BME280;65651;53.154;17.916;2023-05-10T12:21:30;101130.96;;;19.73;25.52
76726;BME280;65651;53.154;17.916;2023-05-10T12:24:03;101130.84;;;19.76;25.47
76726;BME280;65651;53.154;17.916;2023-05-10T12:26:31;101142.21;;;19.75;25.21
76726;BME280;65651;53.154;17.916;2023-05-10T12:29:31;101140.50;;;19.69;25.23
76726;BME280;65651;53.154;17.916;2023-05-10T12:31:59;101139.19;;;19.67;25.24
76726;BME280;65651;53.154;17.916;2023-05-10T12:34:30;101137.55;;;19.69;25.26
76726;BME280;65651;53.154;17.916;2023-05-10T12:36:58;101134.04;;;19.73;25.42
76726;BME280;65651;53.154;17.916;2023-05-10T12:39:26;101133.48;;;19.77;25.51
76726;BME280;65651;53.154;17.916;2023-05-10T12:41:53;101133.85;;;19.79;25.24
76726;BME280;65651;53.154;17.916;2023-05-10T12:44:21;101142.55;;;19.78;25.25
76726;BME280;65651;53.154;17.916;2023-05-10T12:46:48;101141.59;;;19.75;25.22
76726;BME280;65651;53.154;17.916;2023-05-10T12:49:18;101141.19;;;19.77;25.16
76726;BME280;65651;53.154;17.916;2023-05-10T12:51:46;101133.24;;;19.73;25.00
76726;BME280;65651;53.154;17.916;2023-05-10T12:54:13;101134.34;;;19.66;24.97
76726;BME280;65651;53.154;17.916;2023-05-10T12:56:41;101128.34;;;19.68;25.09
76726;BME280;65651;53.154;17.916;2023-05-10T12:59:09;101131.82;;;19.75;25.06
76726;BME280;65651;53.154;17.916;2023-05-10T13:01:39;101133.64;;;19.78;24.98
76726;BME280;65651;53.154;17.916;2023-05-10T13:04:06;101126.38;;;19.80;25.09
76726;BME280;65651;53.154;17.916;2023-05-10T13:06:34;101126.36;;;19.86;25.05
76726;BME280;65651;53.154;17.916;2023-05-10T13:09:02;101132.29;;;19.87;24.94
76726;BME280;65651;53.154;17.916;2023-05-10T13:11:29;101127.48;;;19.86;25.01
76726;BME280;65651;53.154;17.916;2023-05-10T13:13:57;101119.27;;;19.84;24.84
76726;BME280;65651;53.154;17.916;2023-05-10T13:16:24;101118.84;;;19.75;24.95
76726;BME280;65651;53.154;17.916;2023-05-10T13:18:52;101117.55;;;19.65;25.02
76726;BME280;65651;53.154;17.916;2023-05-10T13:21:19;101119.32;;;19.58;24.99
76726;BME280;65651;53.154;17.916;2023-05-10T13:23:47;101125.38;;;19.53;25.19
76726;BME280;65651;53.154;17.916;2023-05-10T13:26:15;101122.16;;;19.51;25.06
76726;BME280;65651;53.154;17.916;2023-05-10T13:28:43;101106.10;;;19.44;25.14
76726;BME280;65651;53.154;17.916;2023-05-10T13:31:10;101110.71;;;19.43;25.38
76726;BME280;65651;53.154;17.916;2023-05-10T13:33:37;101111.81;;;19.44;25.50